sensor_id;sensor_type;location;lat;lon;timestamp;P1;durP1;ratioP1;P2;durP2;ratioP2
32152;SDS011;18656;50.580;11.392;2023-01-08T00:02:16;5.85;;;5.25;;
32152;SDS011;18656;50.580;11.392;2023-01-08T00:04:43;5.45;;;4.95;;
32152;SDS011;18656;50.580;11.392;2023-01-08T00:07:11;10.10;;;5.85;;
32152;SDS011;18656;50.580;11.392;2023-01-08T00:09:38;8.98;;;6.20;;
32152;SDS011;18656;50.580;11.392;2023-01-08T00:12:05;7.25;;;5.97;;
32152;SDS011;18656;50.580;11.392;2023-01-08T00:14:32;8.68;;;6.50;;
32152;SDS011;18656;50.580;11.392;2023-01-08T00:16:59;13.98;;;6.78;;
32152;SDS011;18656;50.580;11.392;2023-01-08T00:19:27;18.80;;;8.48;;
32152;SDS011;18656;50.580;11.392;2023-01-08T00:21:56;13.15;;;7.70;;
32152;SDS011;18656;50.580;11.392;2023-01-08T00:24:23;14.02;;;7.82;;
32152;SDS011;18656;50.580;11.392;2023-01-08T00:26:50;13.65;;;7.45;;
32152;SDS011;18656;50.580;11.392;2023-01-08T00:29:17;8.80;;;6.47;;
32152;SDS011;18656;50.580;11.392;2023-01-08T00:31:44;15.68;;;6.32;;
32152;SDS011;18656;50.580;11.392;2023-01-08T00:34:12;8.43;;;5.97;;
32152;SDS011;18656;50.580;11.392;2023-01-08T00:36:39;11.35;;;6.25;;
32152;SDS011;18656;50.580;11.392;2023-01-08T00:39:06;8.95;;;5.95;;
32152;SDS011;18656;50.580;11.392;2023-01-08T00:41:33;11.20;;;6.13;;
32152;SDS011;18656;50.580;11.392;2023-01-08T00:44:00;12.05;;;6.95;;
32152;SDS011;18656;50.580;11.392;2023-01-08T00:46:27;12.10;;;7.95;;
32152;SDS011;18656;50.580;11.392;2023-01-08T00:48:54;9.50;;;7.75;;
32152;SDS011;18656;50.580;11.392;2023-01-08T00:51:22;12.98;;;7.50;;
32152;SDS011;18656;50.580;11.392;2023-01-08T00:53:49;15.57;;;8.20;;
32152;SDS011;18656;50.580;11.392;2023-01-08T00:56:16;9.68;;;7.80;;
32152;SDS011;18656;50.580;11.392;2023-01-08T00:58:43;12.35;;;7.78;;
32152;SDS011;18656;50.580;11.392;2023-01-08T01:01:11;11.85;;;7.20;;
32152;SDS011;18656;50.580;11.392;2023-01-08T01:03:39;13.55;;;8.20;;
32152;SDS011;18656;50.580;11.392;2023-01-08T01:06:07;14.80;;;6.65;;
32152;SDS011;18656;50.580;11.392;2023-01-08T01:08:34;8.88;;;6.32;;
32152;SDS011;18656;50.580;11.392;2023-01-08T01:11:05;8.27;;;6.05;;
32152;SDS011;18656;50.580;11.392;2023-01-08T01:13:33;8.55;;;6.25;;
32152;SDS011;18656;50.580;11.392;2023-01-08T01:16:00;10.52;;;6.68;;
32152;SDS011;18656;50.580;11.392;2023-01-08T01:18:28;12.18;;;7.50;;
32152;SDS011;18656;50.580;11.392;2023-01-08T01:20:55;7.97;;;5.95;;
32152;SDS011;18656;50.580;11.392;2023-01-08T01:23:22;12.63;;;6.10;;
32152;SDS011;18656;50.580;11.392;2023-01-08T01:25:50;11.00;;;7.22;;
32152;SDS011;18656;50.580;11.392;2023-01-08T01:28:17;13.77;;;7.68;;
32152;SDS011;18656;50.580;11.392;2023-01-08T01:30:44;14.63;;;7.38;;
32152;SDS011;18656;50.580;11.392;2023-01-08T01:33:11;18.23;;;7.38;;
32152;SDS011;18656;50.580;11.392;2023-01-08T01:35:38;11.25;;;6.68;;
32152;SDS011;18656;50.580;11.392;2023-01-08T01:38:06;12.77;;;7.13;;
32152;SDS011;18656;50.580;11.392;2023-01-08T01:40:33;17.45;;;7.07;;
32152;SDS011;18656;50.580;11.392;2023-01-08T01:43:00;9.05;;;6.97;;
32152;SDS011;18656;50.580;11.392;2023-01-08T01:45:27;14.18;;;8.50;;
32152;SDS011;18656;50.580;11.392;2023-01-08T01:47:58;13.25;;;8.38;;
32152;SDS011;18656;50.580;11.392;2023-01-08T01:50:30;16.77;;;10.48;;
32152;SDS011;18656;50.580;11.392;2023-01-08T01:53:04;26.85;;;10.40;;
32152;SDS011;18656;50.580;11.392;2023-01-08T01:55:33;18.10;;;9.35;;
32152;SDS011;18656;50.580;11.392;2023-01-08T01:58:05;13.55;;;8.88;;
32152;SDS011;18656;50.580;11.392;2023-01-08T02:03:02;15.38;;;8.40;;
32152;SDS011;18656;50.580;11.392;2023-01-08T02:08:26;11.30;;;7.95;;
32152;SDS011;18656;50.580;11.392;2023-01-08T02:10:57;13.38;;;9.30;;
32152;SDS011;18656;50.580;11.392;2023-01-08T02:13:33;12.65;;;9.23;;
32152;SDS011;18656;50.580;11.392;2023-01-08T02:18:32;11.77;;;8.50;;
32152;SDS011;18656;50.580;11.392;2023-01-08T02:21:01;11.02;;;9.02;;
32152;SDS011;18656;50.580;11.392;2023-01-08T02:23:41;14.38;;;10.25;;
32152;SDS011;18656;50.580;11.392;2023-01-08T02:28:55;9.93;;;7.38;;
32152;SDS011;18656;50.580;11.392;2023-01-08T02:31:24;6.35;;;5.75;;
32152;SDS011;18656;50.580;11.392;2023-01-08T02:33:51;6.63;;;5.85;;
32152;SDS011;18656;50.580;11.392;2023-01-08T02:41:52;4.97;;;4.47;;
32152;SDS011;18656;50.580;11.392;2023-01-08T02:44:22;4.80;;;4.03;;
32152;SDS011;18656;50.580;11.392;2023-01-08T02:46:52;4.20;;;3.80;;
32152;SDS011;18656;50.580;11.392;2023-01-08T02:49:20;4.68;;;4.28;;
32152;SDS011;18656;50.580;11.392;2023-01-08T02:51:50;6.05;;;4.50;;
32152;SDS011;18656;50.580;11.392;2023-01-08T02:54:20;4.78;;;4.43;;
32152;SDS011;18656;50.580;11.392;2023-01-08T02:56:52;5.03;;;4.30;;
32152;SDS011;18656;50.580;11.392;2023-01-08T02:59:19;4.38;;;3.97;;
32152;SDS011;18656;50.580;11.392;2023-01-08T03:01:47;6.90;;;5.15;;
32152;SDS011;18656;50.580;11.392;2023-01-08T03:04:16;4.60;;;4.30;;
32152;SDS011;18656;50.580;11.392;2023-01-08T03:06:44;4.93;;;4.20;;
32152;SDS011;18656;50.580;11.392;2023-01-08T03:09:12;5.78;;;4.70;;
32152;SDS011;18656;50.580;11.392;2023-01-08T03:11:41;4.50;;;3.97;;
32152;SDS011;18656;50.580;11.392;2023-01-08T03:14:11;6.10;;;4.15;;
32152;SDS011;18656;50.580;11.392;2023-01-08T03:16:45;6.20;;;4.00;;
32152;SDS011;18656;50.580;11.392;2023-01-08T03:19:15;6.40;;;4.18;;
32152;SDS011;18656;50.580;11.392;2023-01-08T03:21:43;4.75;;;4.13;;
32152;SDS011;18656;50.580;11.392;2023-01-08T03:24:12;7.90;;;4.40;;
32152;SDS011;18656;50.580;11.392;2023-01-08T03:26:40;4.50;;;4.10;;
32152;SDS011;18656;50.580;11.392;2023-01-08T03:29:13;4.90;;;4.35;;
32152;SDS011;18656;50.580;11.392;2023-01-08T03:31:41;6.47;;;4.45;;
32152;SDS011;18656;50.580;11.392;2023-01-08T03:34:10;4.97;;;4.57;;
32152;SDS011;18656;50.580;11.392;2023-01-08T03:36:40;7.50;;;4.55;;
32152;SDS011;18656;50.580;11.392;2023-01-08T03:41:41;4.03;;;3.72;;
32152;SDS011;18656;50.580;11.392;2023-01-08T03:44:08;4.75;;;4.35;;
32152;SDS011;18656;50.580;11.392;2023-01-08T03:46:39;6.22;;;4.88;;
32152;SDS011;18656;50.580;11.392;2023-01-08T03:49:08;4.82;;;4.43;;
32152;SDS011;18656;50.580;11.392;2023-01-08T03:51:43;6.07;;;4.03;;
32152;SDS011;18656;50.580;11.392;2023-01-08T03:54:12;6.13;;;4.15;;
32152;SDS011;18656;50.580;11.392;2023-01-08T03:56:39;4.47;;;4.05;;
32152;SDS011;18656;50.580;11.392;2023-01-08T03:59:06;4.53;;;4.13;;
32152;SDS011;18656;50.580;11.392;2023-01-08T04:01:33;4.57;;;4.18;;
32152;SDS011;18656;50.580;11.392;2023-01-08T04:04:01;6.15;;;3.95;;
32152;SDS011;18656;50.580;11.392;2023-01-08T04:06:28;4.60;;;4.20;;
32152;SDS011;18656;50.580;11.392;2023-01-08T04:08:55;7.25;;;4.28;;
32152;SDS011;18656;50.580;11.392;2023-01-08T04:11:22;4.57;;;4.28;;
32152;SDS011;18656;50.580;11.392;2023-01-08T04:13:50;4.50;;;4.10;;
32152;SDS011;18656;50.580;11.392;2023-01-08T04:16:17;5.03;;;4.53;;
32152;SDS011;18656;50.580;11.392;2023-01-08T04:18:47;4.65;;;4.25;;
32152;SDS011;18656;50.580;11.392;2023-01-08T04:21:14;4.95;;;4.45;;
32152;SDS011;18656;50.580;11.392;2023-01-08T04:23:41;4.60;;;4.20;;
32152;SDS011;18656;50.580;11.392;2023-01-08T04:26:09;4.30;;;3.90;;
32152;SDS011;18656;50.580;11.392;2023-01-08T04:28:36;5.53;;;4.65;;
32152;SDS011;18656;50.580;11.392;2023-01-08T04:31:04;4.55;;;4.18;;
32152;SDS011;18656;50.580;11.392;2023-01-08T04:33:31;4.95;;;4.55;;
32152;SDS011;18656;50.580;11.392;2023-01-08T04:35:58;4.35;;;3.95;;
32152;SDS011;18656;50.580;11.392;2023-01-08T04:38:26;5.30;;;4.38;;
32152;SDS011;18656;50.580;11.392;2023-01-08T04:40:56;5.18;;;4.68;;
32152;SDS011;18656;50.580;11.392;2023-01-08T04:43:24;7.90;;;5.10;;
32152;SDS011;18656;50.580;11.392;2023-01-08T04:45:57;5.40;;;4.82;;
32152;SDS011;18656;50.580;11.392;2023-01-08T04:48:25;7.38;;;4.63;;
32152;SDS011;18656;50.580;11.392;2023-01-08T04:50:52;5.10;;;4.70;;
32152;SDS011;18656;50.580;11.392;2023-01-08T04:53:19;6.05;;;5.28;;
32152;SDS011;18656;50.580;11.392;2023-01-08T04:55:46;6.10;;;5.40;;
32152;SDS011;18656;50.580;11.392;2023-01-08T04:58:14;6.85;;;5.47;;
32152;SDS011;18656;50.580;11.392;2023-01-08T05:00:41;8.32;;;5.40;;
32152;SDS011;18656;50.580;11.392;2023-01-08T05:03:08;5.82;;;5.22;;
32152;SDS011;18656;50.580;11.392;2023-01-08T05:05:36;5.57;;;5.03;;
32152;SDS011;18656;50.580;11.392;2023-01-08T05:08:03;7.53;;;5.05;;
32152;SDS011;18656;50.580;11.392;2023-01-08T05:10:30;6.82;;;5.18;;
32152;SDS011;18656;50.580;11.392;2023-01-08T05:12:58;6.00;;;5.43;;
32152;SDS011;18656;50.580;11.392;2023-01-08T05:15:25;9.65;;;6.32;;
32152;SDS011;18656;50.580;11.392;2023-01-08T05:18:00;6.22;;;5.63;;
32152;SDS011;18656;50.580;11.392;2023-01-08T05:22:54;6.85;;;5.07;;
32152;SDS011;18656;50.580;11.392;2023-01-08T05:25:23;7.50;;;5.63;;
32152;SDS011;18656;50.580;11.392;2023-01-08T05:27:51;7.72;;;6.03;;
32152;SDS011;18656;50.580;11.392;2023-01-08T05:30:18;6.72;;;6.00;;
32152;SDS011;18656;50.580;11.392;2023-01-08T05:32:45;6.20;;;5.65;;
32152;SDS011;18656;50.580;11.392;2023-01-08T05:35:12;8.68;;;6.15;;
32152;SDS011;18656;50.580;11.392;2023-01-08T05:37:39;6.95;;;6.18;;
32152;SDS011;18656;50.580;11.392;2023-01-08T05:40:07;6.75;;;6.10;;
32152;SDS011;18656;50.580;11.392;2023-01-08T05:42:35;7.68;;;6.20;;
32152;SDS011;18656;50.580;11.392;2023-01-08T05:45:03;7.15;;;6.20;;
32152;SDS011;18656;50.580;11.392;2023-01-08T05:47:30;6.55;;;5.80;;
32152;SDS011;18656;50.580;11.392;2023-01-08T05:49:58;6.35;;;5.75;;
32152;SDS011;18656;50.580;11.392;2023-01-08T05:52:25;8.02;;;6.30;;
32152;SDS011;18656;50.580;11.392;2023-01-08T05:54:53;11.55;;;9.55;;
32152;SDS011;18656;50.580;11.392;2023-01-08T05:57:20;9.80;;;8.57;;
32152;SDS011;18656;50.580;11.392;2023-01-08T05:59:47;6.72;;;6.13;;
32152;SDS011;18656;50.580;11.392;2023-01-08T06:02:14;7.40;;;6.45;;
32152;SDS011;18656;50.580;11.392;2023-01-08T06:04:41;7.70;;;6.03;;
32152;SDS011;18656;50.580;11.392;2023-01-08T06:07:11;7.18;;;6.28;;
32152;SDS011;18656;50.580;11.392;2023-01-08T06:09:38;6.68;;;6.07;;
32152;SDS011;18656;50.580;11.392;2023-01-08T06:12:06;7.30;;;6.47;;
32152;SDS011;18656;50.580;11.392;2023-01-08T06:14:33;6.68;;;6.07;;
32152;SDS011;18656;50.580;11.392;2023-01-08T06:17:00;6.95;;;6.20;;
32152;SDS011;18656;50.580;11.392;2023-01-08T06:19:29;6.70;;;6.10;;
32152;SDS011;18656;50.580;11.392;2023-01-08T06:21:56;7.82;;;6.50;;
32152;SDS011;18656;50.580;11.392;2023-01-08T06:24:24;9.18;;;7.70;;
32152;SDS011;18656;50.580;11.392;2023-01-08T06:26:51;9.70;;;8.65;;
32152;SDS011;18656;50.580;11.392;2023-01-08T06:29:18;11.60;;;8.18;;
32152;SDS011;18656;50.580;11.392;2023-01-08T06:31:45;8.38;;;7.03;;
32152;SDS011;18656;50.580;11.392;2023-01-08T06:34:12;8.18;;;7.00;;
32152;SDS011;18656;50.580;11.392;2023-01-08T06:36:40;8.40;;;7.60;;
32152;SDS011;18656;50.580;11.392;2023-01-08T06:39:07;9.68;;;6.93;;
32152;SDS011;18656;50.580;11.392;2023-01-08T06:41:34;7.72;;;6.60;;
32152;SDS011;18656;50.580;11.392;2023-01-08T06:44:01;6.97;;;6.38;;
32152;SDS011;18656;50.580;11.392;2023-01-08T06:46:29;7.00;;;6.15;;
32152;SDS011;18656;50.580;11.392;2023-01-08T06:48:56;8.85;;;6.32;;
32152;SDS011;18656;50.580;11.392;2023-01-08T06:51:24;7.20;;;6.50;;
32152;SDS011;18656;50.580;11.392;2023-01-08T06:53:51;7.75;;;6.95;;
32152;SDS011;18656;50.580;11.392;2023-01-08T06:56:18;16.58;;;13.60;;
32152;SDS011;18656;50.580;11.392;2023-01-08T06:58:45;35.40;;;24.70;;
32152;SDS011;18656;50.580;11.392;2023-01-08T07:01:13;17.98;;;12.10;;
32152;SDS011;18656;50.580;11.392;2023-01-08T07:03:41;31.55;;;14.80;;
32152;SDS011;18656;50.580;11.392;2023-01-08T07:06:13;34.47;;;17.38;;
32152;SDS011;18656;50.580;11.392;2023-01-08T07:08:42;27.93;;;10.53;;
32152;SDS011;18656;50.580;11.392;2023-01-08T07:11:09;13.10;;;7.60;;
32152;SDS011;18656;50.580;11.392;2023-01-08T07:13:36;39.85;;;24.08;;
32152;SDS011;18656;50.580;11.392;2023-01-08T07:16:11;54.67;;;30.27;;
32152;SDS011;18656;50.580;11.392;2023-01-08T07:18:38;23.80;;;11.32;;
32152;SDS011;18656;50.580;11.392;2023-01-08T07:21:06;16.38;;;9.18;;
32152;SDS011;18656;50.580;11.392;2023-01-08T07:23:33;13.25;;;7.20;;
32152;SDS011;18656;50.580;11.392;2023-01-08T07:26:01;9.68;;;7.70;;
32152;SDS011;18656;50.580;11.392;2023-01-08T07:28:29;9.35;;;7.72;;
32152;SDS011;18656;50.580;11.392;2023-01-08T07:30:56;12.60;;;8.85;;
32152;SDS011;18656;50.580;11.392;2023-01-08T07:33:23;10.23;;;9.10;;
32152;SDS011;18656;50.580;11.392;2023-01-08T07:35:51;12.10;;;9.25;;
32152;SDS011;18656;50.580;11.392;2023-01-08T07:38:18;9.90;;;8.23;;
32152;SDS011;18656;50.580;11.392;2023-01-08T07:40:46;9.95;;;8.13;;
32152;SDS011;18656;50.580;11.392;2023-01-08T07:43:13;10.80;;;8.43;;
32152;SDS011;18656;50.580;11.392;2023-01-08T07:45:41;10.30;;;8.57;;
32152;SDS011;18656;50.580;11.392;2023-01-08T07:48:08;12.00;;;7.90;;
32152;SDS011;18656;50.580;11.392;2023-01-08T07:50:36;8.80;;;7.90;;
32152;SDS011;18656;50.580;11.392;2023-01-08T07:53:06;7.47;;;6.63;;
32152;SDS011;18656;50.580;11.392;2023-01-08T07:55:33;8.23;;;7.35;;
32152;SDS011;18656;50.580;11.392;2023-01-08T07:58:05;10.73;;;7.80;;
32152;SDS011;18656;50.580;11.392;2023-01-08T08:00:32;12.32;;;7.70;;
32152;SDS011;18656;50.580;11.392;2023-01-08T08:03:03;11.15;;;8.27;;
32152;SDS011;18656;50.580;11.392;2023-01-08T08:05:31;9.70;;;7.47;;
32152;SDS011;18656;50.580;11.392;2023-01-08T08:07:59;9.15;;;7.50;;
32152;SDS011;18656;50.580;11.392;2023-01-08T08:10:26;9.05;;;7.65;;
32152;SDS011;18656;50.580;11.392;2023-01-08T08:12:53;9.90;;;7.20;;
32152;SDS011;18656;50.580;11.392;2023-01-08T08:15:21;8.65;;;7.28;;
32152;SDS011;18656;50.580;11.392;2023-01-08T08:17:49;9.07;;;7.28;;
32152;SDS011;18656;50.580;11.392;2023-01-08T08:20:17;8.93;;;7.20;;
32152;SDS011;18656;50.580;11.392;2023-01-08T08:22:45;8.55;;;7.13;;
32152;SDS011;18656;50.580;11.392;2023-01-08T08:25:12;8.68;;;7.75;;
32152;SDS011;18656;50.580;11.392;2023-01-08T08:27:41;9.07;;;7.85;;
32152;SDS011;18656;50.580;11.392;2023-01-08T08:30:09;8.75;;;7.95;;
32152;SDS011;18656;50.580;11.392;2023-01-08T08:32:36;11.00;;;8.45;;
32152;SDS011;18656;50.580;11.392;2023-01-08T08:35:04;11.77;;;8.10;;
32152;SDS011;18656;50.580;11.392;2023-01-08T08:37:31;8.52;;;7.30;;
32152;SDS011;18656;50.580;11.392;2023-01-08T08:39:58;7.93;;;7.13;;
32152;SDS011;18656;50.580;11.392;2023-01-08T08:42:25;8.18;;;7.38;;
32152;SDS011;18656;50.580;11.392;2023-01-08T08:44:53;8.65;;;7.75;;
32152;SDS011;18656;50.580;11.392;2023-01-08T08:47:20;8.73;;;7.90;;
32152;SDS011;18656;50.580;11.392;2023-01-08T08:49:47;8.73;;;7.82;;
32152;SDS011;18656;50.580;11.392;2023-01-08T08:52:14;9.02;;;8.07;;
32152;SDS011;18656;50.580;11.392;2023-01-08T08:54:41;8.60;;;7.60;;
32152;SDS011;18656;50.580;11.392;2023-01-08T08:57:09;7.40;;;6.68;;
32152;SDS011;18656;50.580;11.392;2023-01-08T08:59:36;11.43;;;9.70;;
32152;SDS011;18656;50.580;11.392;2023-01-08T09:02:04;8.57;;;7.72;;
32152;SDS011;18656;50.580;11.392;2023-01-08T09:04:32;9.13;;;8.23;;
32152;SDS011;18656;50.580;11.392;2023-01-08T09:06:59;9.85;;;8.85;;
32152;SDS011;18656;50.580;11.392;2023-01-08T09:09:26;8.57;;;7.53;;
32152;SDS011;18656;50.580;11.392;2023-01-08T09:11:54;9.63;;;7.95;;
32152;SDS011;18656;50.580;11.392;2023-01-08T09:14:22;8.73;;;7.82;;
32152;SDS011;18656;50.580;11.392;2023-01-08T09:16:49;12.50;;;8.27;;
32152;SDS011;18656;50.580;11.392;2023-01-08T09:19:16;8.70;;;7.80;;
32152;SDS011;18656;50.580;11.392;2023-01-08T09:21:43;7.53;;;6.82;;
32152;SDS011;18656;50.580;11.392;2023-01-08T09:24:10;8.70;;;7.55;;
32152;SDS011;18656;50.580;11.392;2023-01-08T09:26:38;7.97;;;7.13;;
32152;SDS011;18656;50.580;11.392;2023-01-08T09:29:05;8.88;;;7.57;;
32152;SDS011;18656;50.580;11.392;2023-01-08T09:31:32;9.40;;;8.50;;
32152;SDS011;18656;50.580;11.392;2023-01-08T09:34:00;8.82;;;7.93;;
32152;SDS011;18656;50.580;11.392;2023-01-08T09:36:27;8.02;;;7.05;;
32152;SDS011;18656;50.580;11.392;2023-01-08T09:38:54;7.97;;;7.18;;
32152;SDS011;18656;50.580;11.392;2023-01-08T09:41:23;7.60;;;6.72;;
32152;SDS011;18656;50.580;11.392;2023-01-08T09:43:53;7.80;;;6.97;;
32152;SDS011;18656;50.580;11.392;2023-01-08T09:46:21;8.05;;;6.93;;
32152;SDS011;18656;50.580;11.392;2023-01-08T09:48:50;8.73;;;7.15;;
32152;SDS011;18656;50.580;11.392;2023-01-08T09:51:18;7.65;;;6.85;;
32152;SDS011;18656;50.580;11.392;2023-01-08T09:53:47;7.57;;;6.60;;
32152;SDS011;18656;50.580;11.392;2023-01-08T09:56:16;7.97;;;7.05;;
32152;SDS011;18656;50.580;11.392;2023-01-08T10:01:13;9.60;;;7.43;;
32152;SDS011;18656;50.580;11.392;2023-01-08T10:03:45;13.25;;;8.13;;
32152;SDS011;18656;50.580;11.392;2023-01-08T10:06:14;21.27;;;15.68;;
32152;SDS011;18656;50.580;11.392;2023-01-08T10:08:42;15.40;;;8.82;;
32152;SDS011;18656;50.580;11.392;2023-01-08T10:11:10;11.82;;;8.55;;
32152;SDS011;18656;50.580;11.392;2023-01-08T10:13:39;8.70;;;6.85;;
32152;SDS011;18656;50.580;11.392;2023-01-08T10:16:08;7.75;;;6.80;;
32152;SDS011;18656;50.580;11.392;2023-01-08T10:18:36;6.93;;;6.22;;
32152;SDS011;18656;50.580;11.392;2023-01-08T10:21:08;19.70;;;8.43;;
32152;SDS011;18656;50.580;11.392;2023-01-08T10:23:36;7.55;;;6.03;;
32152;SDS011;18656;50.580;11.392;2023-01-08T10:26:03;5.80;;;5.28;;
32152;SDS011;18656;50.580;11.392;2023-01-08T10:28:31;8.90;;;7.05;;
32152;SDS011;18656;50.580;11.392;2023-01-08T10:31:06;10.30;;;6.53;;
32152;SDS011;18656;50.580;11.392;2023-01-08T10:33:38;6.83;;;5.87;;
32152;SDS011;18656;50.580;11.392;2023-01-08T10:36:07;8.35;;;6.28;;
32152;SDS011;18656;50.580;11.392;2023-01-08T10:38:35;8.85;;;6.05;;
32152;SDS011;18656;50.580;11.392;2023-01-08T10:41:04;6.45;;;5.85;;
32152;SDS011;18656;50.580;11.392;2023-01-08T10:43:33;6.50;;;5.78;;
32152;SDS011;18656;50.580;11.392;2023-01-08T10:51:06;7.13;;;6.43;;
32152;SDS011;18656;50.580;11.392;2023-01-08T10:53:33;6.82;;;6.13;;
32152;SDS011;18656;50.580;11.392;2023-01-08T10:56:01;9.40;;;6.35;;
32152;SDS011;18656;50.580;11.392;2023-01-08T10:58:38;6.53;;;5.93;;
32152;SDS011;18656;50.580;11.392;2023-01-08T11:01:25;8.25;;;5.68;;
32152;SDS011;18656;50.580;11.392;2023-01-08T11:03:57;6.57;;;5.97;;
32152;SDS011;18656;50.580;11.392;2023-01-08T11:06:28;6.75;;;6.05;;
32152;SDS011;18656;50.580;11.392;2023-01-08T11:08:57;6.28;;;5.63;;
32152;SDS011;18656;50.580;11.392;2023-01-08T11:11:32;8.05;;;6.53;;
32152;SDS011;18656;50.580;11.392;2023-01-08T11:14:02;5.80;;;5.30;;
32152;SDS011;18656;50.580;11.392;2023-01-08T11:16:30;6.00;;;5.50;;
32152;SDS011;18656;50.580;11.392;2023-01-08T11:18:59;5.90;;;5.40;;
32152;SDS011;18656;50.580;11.392;2023-01-08T11:21:27;5.72;;;5.13;;
32152;SDS011;18656;50.580;11.392;2023-01-08T11:24:00;5.60;;;5.10;;
32152;SDS011;18656;50.580;11.392;2023-01-08T11:26:28;5.57;;;5.07;;
32152;SDS011;18656;50.580;11.392;2023-01-08T11:29:05;5.65;;;5.03;;
32152;SDS011;18656;50.580;11.392;2023-01-08T11:31:35;5.15;;;4.72;;
32152;SDS011;18656;50.580;11.392;2023-01-08T11:34:26;4.38;;;4.07;;
32152;SDS011;18656;50.580;11.392;2023-01-08T11:36:58;5.63;;;4.65;;
32152;SDS011;18656;50.580;11.392;2023-01-08T11:39:28;4.35;;;4.05;;
32152;SDS011;18656;50.580;11.392;2023-01-08T11:42:12;5.07;;;4.35;;
32152;SDS011;18656;50.580;11.392;2023-01-08T11:50:26;5.00;;;4.53;;
32152;SDS011;18656;50.580;11.392;2023-01-08T11:53:06;8.15;;;6.30;;
32152;SDS011;18656;50.580;11.392;2023-01-08T11:58:27;4.85;;;4.20;;
32152;SDS011;18656;50.580;11.392;2023-01-08T12:01:04;3.78;;;3.53;;
32152;SDS011;18656;50.580;11.392;2023-01-08T12:03:35;3.78;;;3.47;;
32152;SDS011;18656;50.580;11.392;2023-01-08T12:11:27;3.58;;;3.28;;
32152;SDS011;18656;50.580;11.392;2023-01-08T12:14:14;3.72;;;3.42;;
32152;SDS011;18656;50.580;11.392;2023-01-08T12:27:19;3.08;;;2.88;;
32152;SDS011;18656;50.580;11.392;2023-01-08T12:32:45;2.70;;;2.47;;
32152;SDS011;18656;50.580;11.392;2023-01-08T12:40:23;2.97;;;2.72;;
32152;SDS011;18656;50.580;11.392;2023-01-08T12:42:53;2.33;;;2.10;;
32152;SDS011;18656;50.580;11.392;2023-01-08T12:45:27;2.55;;;2.35;;
32152;SDS011;18656;50.580;11.392;2023-01-08T12:48:00;2.10;;;2.00;;
32152;SDS011;18656;50.580;11.392;2023-01-08T12:50:34;2.10;;;2.00;;
32152;SDS011;18656;50.580;11.392;2023-01-08T13:00:38;2.70;;;2.50;;
32152;SDS011;18656;50.580;11.392;2023-01-08T13:03:09;2.10;;;1.92;;
32152;SDS011;18656;50.580;11.392;2023-01-08T13:05:40;2.10;;;2.00;;
32152;SDS011;18656;50.580;11.392;2023-01-08T13:10:52;1.85;;;1.75;;
32152;SDS011;18656;50.580;11.392;2023-01-08T13:13:27;1.88;;;1.77;;
32152;SDS011;18656;50.580;11.392;2023-01-08T13:16:05;1.80;;;1.70;;
32152;SDS011;18656;50.580;11.392;2023-01-08T13:18:33;1.88;;;1.77;;
32152;SDS011;18656;50.580;11.392;2023-01-08T13:21:01;1.80;;;1.70;;
32152;SDS011;18656;50.580;11.392;2023-01-08T13:23:33;2.00;;;1.90;;
32152;SDS011;18656;50.580;11.392;2023-01-08T13:26:01;2.17;;;1.58;;
32152;SDS011;18656;50.580;11.392;2023-01-08T13:31:12;2.30;;;2.20;;
32152;SDS011;18656;50.580;11.392;2023-01-08T13:33:51;2.03;;;1.90;;
32152;SDS011;18656;50.580;11.392;2023-01-08T13:36:19;2.20;;;2.10;;
32152;SDS011;18656;50.580;11.392;2023-01-08T13:44:26;2.40;;;2.28;;
32152;SDS011;18656;50.580;11.392;2023-01-08T13:46:55;2.00;;;1.90;;
32152;SDS011;18656;50.580;11.392;2023-01-08T13:49:28;2.10;;;2.00;;
32152;SDS011;18656;50.580;11.392;2023-01-08T13:51:57;1.98;;;1.88;;
32152;SDS011;18656;50.580;11.392;2023-01-08T13:54:30;3.00;;;2.30;;
32152;SDS011;18656;50.580;11.392;2023-01-08T13:57:01;2.35;;;2.15;;
32152;SDS011;18656;50.580;11.392;2023-01-08T13:59:39;2.38;;;2.10;;
32152;SDS011;18656;50.580;11.392;2023-01-08T14:04:50;1.80;;;1.70;;
32152;SDS011;18656;50.580;11.392;2023-01-08T14:07:17;6.38;;;4.32;;
32152;SDS011;18656;50.580;11.392;2023-01-08T14:09:45;4.65;;;4.00;;
32152;SDS011;18656;50.580;11.392;2023-01-08T14:12:19;3.03;;;2.80;;
32152;SDS011;18656;50.580;11.392;2023-01-08T14:14:48;3.80;;;2.38;;
32152;SDS011;18656;50.580;11.392;2023-01-08T14:17:17;1.90;;;1.80;;
32152;SDS011;18656;50.580;11.392;2023-01-08T14:19:44;1.98;;;1.80;;
32152;SDS011;18656;50.580;11.392;2023-01-08T14:22:16;1.73;;;1.63;;
32152;SDS011;18656;50.580;11.392;2023-01-08T14:24:44;1.90;;;1.80;;
32152;SDS011;18656;50.580;11.392;2023-01-08T14:27:19;1.65;;;1.50;;
32152;SDS011;18656;50.580;11.392;2023-01-08T14:29:47;1.83;;;1.20;;
32152;SDS011;18656;50.580;11.392;2023-01-08T14:32:21;1.10;;;1.10;;
32152;SDS011;18656;50.580;11.392;2023-01-08T14:34:49;0.90;;;0.90;;
32152;SDS011;18656;50.580;11.392;2023-01-08T14:37:17;1.00;;;1.00;;
32152;SDS011;18656;50.580;11.392;2023-01-08T14:39:45;0.90;;;0.90;;
32152;SDS011;18656;50.580;11.392;2023-01-08T14:42:33;1.20;;;1.10;;
32152;SDS011;18656;50.580;11.392;2023-01-08T14:47:42;0.90;;;0.90;;
32152;SDS011;18656;50.580;11.392;2023-01-08T14:52:51;1.05;;;0.98;;
32152;SDS011;18656;50.580;11.392;2023-01-08T14:55:19;1.33;;;1.02;;
32152;SDS011;18656;50.580;11.392;2023-01-08T14:57:51;1.30;;;1.00;;
32152;SDS011;18656;50.580;11.392;2023-01-08T15:00:23;0.85;;;0.85;;
32152;SDS011;18656;50.580;11.392;2023-01-08T15:02:51;1.08;;;1.00;;
32152;SDS011;18656;50.580;11.392;2023-01-08T15:05:19;0.85;;;0.80;;
32152;SDS011;18656;50.580;11.392;2023-01-08T15:07:56;0.82;;;0.82;;
32152;SDS011;18656;50.580;11.392;2023-01-08T15:10:31;1.00;;;1.00;;
32152;SDS011;18656;50.580;11.392;2023-01-08T15:12:59;0.82;;;0.70;;
32152;SDS011;18656;50.580;11.392;2023-01-08T15:15:29;0.85;;;0.85;;
32152;SDS011;18656;50.580;11.392;2023-01-08T15:17:57;0.80;;;0.80;;
32152;SDS011;18656;50.580;11.392;2023-01-08T15:20:27;1.05;;;0.77;;
32152;SDS011;18656;50.580;11.392;2023-01-08T15:22:58;0.80;;;0.73;;
32152;SDS011;18656;50.580;11.392;2023-01-08T15:25:26;1.48;;;0.90;;
32152;SDS011;18656;50.580;11.392;2023-01-08T15:27:58;0.70;;;0.70;;
32152;SDS011;18656;50.580;11.392;2023-01-08T15:30:28;0.82;;;0.82;;
32152;SDS011;18656;50.580;11.392;2023-01-08T15:33:05;0.90;;;0.90;;
32152;SDS011;18656;50.580;11.392;2023-01-08T15:35:32;0.77;;;0.77;;
32152;SDS011;18656;50.580;11.392;2023-01-08T15:38:00;0.80;;;0.80;;
32152;SDS011;18656;50.580;11.392;2023-01-08T15:40:29;2.20;;;0.82;;
32152;SDS011;18656;50.580;11.392;2023-01-08T15:42:57;1.70;;;1.60;;
32152;SDS011;18656;50.580;11.392;2023-01-08T15:45:43;1.90;;;1.80;;
32152;SDS011;18656;50.580;11.392;2023-01-08T15:48:11;0.90;;;0.90;;
32152;SDS011;18656;50.580;11.392;2023-01-08T15:50:39;0.73;;;0.73;;
32152;SDS011;18656;50.580;11.392;2023-01-08T15:53:25;0.80;;;0.80;;
32152;SDS011;18656;50.580;11.392;2023-01-08T15:55:52;0.98;;;0.90;;
32152;SDS011;18656;50.580;11.392;2023-01-08T15:58:19;2.35;;;1.27;;
32152;SDS011;18656;50.580;11.392;2023-01-08T16:00:46;1.40;;;1.30;;
32152;SDS011;18656;50.580;11.392;2023-01-08T16:03:14;0.90;;;0.90;;
32152;SDS011;18656;50.580;11.392;2023-01-08T16:05:41;1.30;;;1.20;;
32152;SDS011;18656;50.580;11.392;2023-01-08T16:08:09;0.90;;;0.90;;
32152;SDS011;18656;50.580;11.392;2023-01-08T16:10:36;1.10;;;1.10;;